Time;durP1;ratioP1;P1;durP2;ratioP2;P2;SDS_P1;SDS_P2;PMS_P1;PMS_P2;Temp;Humidity;BMP_temperature;BMP_pressure;BME280_temperature;BME280_humidity;BME280_pressure;Samples;Min_cycle;Max_cycle;Signal;HPM_P1;HPM_P2
2022/05/02 00:00:24;;;;;;;18.17;13.25;;;5.90;99.90;;;;;;5058269;28;20507;-84
2022/05/02 00:02:52;;;;;;;19.92;12.63;;;5.90;99.90;;;;;;5058570;28;20024;-85
2022/05/02 00:05:19;;;;;;;19.65;12.50;;;5.90;99.90;;;;;;5075415;28;20024;-85
2022/05/02 00:07:47;;;;;;;18.85;13.60;;;5.80;99.90;;;;;;5058043;28;20107;-86
2022/05/02 00:10:16;;;;;;;16.70;12.32;;;5.70;99.90;;;;;;5075641;28;20029;-85
2022/05/02 00:12:53;;;;;;;17.42;12.10;;;5.70;99.90;;;;;;5075896;28;20029;-86
2022/05/02 00:15:20;;;;;;;19.10;12.75;;;5.70;99.90;;;;;;5076866;28;20477;-85
2022/05/02 00:17:56;;;;;;;20.60;13.38;;;5.70;99.90;;;;;;5057462;28;20032;-85
2022/05/02 00:20:41;;;;;;;20.80;12.98;;;5.70;99.90;;;;;;5076553;28;20025;-84
2022/05/02 00:23:09;;;;;;;19.15;13.20;;;5.70;99.90;;;;;;5078294;28;20017;-87
2022/05/02 00:25:42;;;;;;;20.58;12.77;;;5.70;99.90;;;;;;5066527;28;20017;-85
2022/05/02 00:28:16;;;;;;;19.85;12.80;;;5.60;99.90;;;;;;5057745;28;20020;-84
2022/05/02 00:30:42;;;;;;;19.80;13.10;;;5.60;99.90;;;;;;5077970;28;20516;-86
2022/05/02 00:33:13;;;;;;;23.85;13.18;;;5.60;99.90;;;;;;5061209;28;20029;-84
2022/05/02 00:35:46;;;;;;;17.88;11.90;;;5.60;99.90;;;;;;5079415;28;20488;-86
2022/05/02 00:38:16;;;;;;;18.20;13.00;;;5.60;99.90;;;;;;5081237;28;20051;-85
2022/05/02 00:40:41;;;;;;;21.33;13.38;;;5.60;99.90;;;;;;5073362;28;20024;-84
2022/05/02 00:43:17;;;;;;;18.15;12.52;;;5.60;99.90;;;;;;5079613;28;20044;-84
2022/05/02 00:45:47;;;;;;;19.63;12.90;;;5.60;99.90;;;;;;5079371;28;20087;-83
2022/05/02 00:48:13;;;;;;;20.85;12.68;;;5.60;99.90;;;;;;5096983;28;20031;-82
2022/05/02 00:50:41;;;;;;;20.40;13.68;;;5.50;99.90;;;;;;5080843;28;20048;-83
2022/05/02 00:53:09;;;;;;;18.52;12.52;;;5.40;99.90;;;;;;5093758;28;20031;-83
2022/05/02 00:55:35;;;;;;;20.48;12.85;;;5.40;99.90;;;;;;5095119;28;20064;-85
2022/05/02 00:58:02;;;;;;;22.38;13.57;;;5.40;99.90;;;;;;5081520;28;20028;-84
2022/05/02 01:00:31;;;;;;;20.45;12.70;;;5.40;99.90;;;;;;5081740;28;20052;-84
2022/05/02 01:02:57;;;;;;;15.90;12.25;;;5.40;99.90;;;;;;5082193;28;20020;-84
2022/05/02 01:05:23;;;;;;;17.65;12.25;;;5.40;99.90;;;;;;5075398;28;20043;-83
2022/05/02 01:07:49;;;;;;;20.02;12.70;;;5.40;99.90;;;;;;5059009;28;20025;-84
2022/05/02 01:10:17;;;;;;;19.00;12.75;;;5.40;99.90;;;;;;5047818;28;20109;-86
2022/05/02 01:12:47;;;;;;;18.30;13.13;;;5.40;99.90;;;;;;5038349;28;20025;-86
2022/05/02 01:15:15;;;;;;;21.40;13.48;;;5.50;99.90;;;;;;5038343;28;20021;-84
2022/05/02 01:17:41;;;;;;;20.65;13.38;;;5.40;99.90;;;;;;5056321;28;20021;-83
2022/05/02 01:20:11;;;;;;;18.52;12.77;;;5.50;99.90;;;;;;5056938;28;20021;-85
2022/05/02 01:22:37;;;;;;;19.00;12.40;;;5.50;99.90;;;;;;5056910;28;20477;-86
2022/05/02 01:25:03;;;;;;;19.08;12.52;;;5.60;99.90;;;;;;5038455;28;20017;-83
2022/05/02 01:27:28;;;;;;;17.63;12.18;;;5.50;99.90;;;;;;5056609;28;20025;-84
2022/05/02 01:29:54;;;;;;;18.45;11.85;;;5.50;99.90;;;;;;5039257;28;20078;-84
2022/05/02 01:32:19;;;;;;;17.77;12.80;;;5.50;99.90;;;;;;5039034;28;20473;-83
2022/05/02 01:34:45;;;;;;;15.95;11.73;;;5.50;99.90;;;;;;5056220;28;20090;-85
2022/05/02 01:37:12;;;;;;;18.77;12.32;;;5.60;99.90;;;;;;5038511;28;20028;-84
2022/05/02 01:39:38;;;;;;;17.83;12.25;;;5.60;99.90;;;;;;5038125;28;20175;-85
2022/05/02 01:42:06;;;;;;;17.15;12.00;;;5.60;99.90;;;;;;5037713;28;20516;-83
2022/05/02 01:44:32;;;;;;;18.58;12.60;;;5.70;99.90;;;;;;5038398;28;20397;-83
2022/05/02 01:46:58;;;;;;;19.65;12.88;;;5.70;99.90;;;;;;5038195;28;20021;-82
2022/05/02 01:49:24;;;;;;;25.00;14.60;;;5.70;99.90;;;;;;5038878;28;20025;-82
2022/05/02 01:51:50;;;;;;;22.92;14.25;;;5.70;99.90;;;;;;5039319;28;20029;-82
2022/05/02 01:54:17;;;;;;;19.98;13.52;;;5.70;99.90;;;;;;5039242;28;20108;-85
2022/05/02 01:56:43;;;;;;;21.23;13.13;;;5.70;99.90;;;;;;5057259;28;20029;-85
2022/05/02 01:59:10;;;;;;;19.63;14.02;;;5.60;99.90;;;;;;5039238;28;20025;-86
2022/05/02 02:01:36;;;;;;;18.27;13.00;;;5.60;99.90;;;;;;5057262;28;20422;-85
2022/05/02 02:06:47;;;;;;;24.73;13.65;;;5.70;99.90;;;;;;5057334;28;20044;-86
2022/05/02 02:09:15;;;;;;;23.10;15.00;;;5.70;99.90;;;;;;5066795;28;20033;-87
2022/05/02 02:11:40;;;;;;;18.00;12.32;;;5.70;99.90;;;;;;5051868;28;20029;-84
2022/05/02 02:14:06;;;;;;;18.83;12.93;;;5.80;99.90;;;;;;5057744;28;20577;-85
2022/05/02 02:16:32;;;;;;;21.45;13.70;;;5.80;99.90;;;;;;5037857;28;20440;-84
2022/05/02 02:18:58;;;;;;;22.25;14.15;;;5.80;99.90;;;;;;5055135;28;20024;-85
2022/05/02 02:21:23;;;;;;;23.08;15.40;;;5.90;99.90;;;;;;5055880;28;20025;-82
2022/05/02 02:23:49;;;;;;;23.77;15.52;;;5.90;99.90;;;;;;5037557;28;20029;-82
2022/05/02 02:26:14;;;;;;;23.13;14.57;;;6.00;99.90;;;;;;5037915;28;20036;-84
2022/05/02 02:28:40;;;;;;;26.42;15.43;;;6.00;99.90;;;;;;5037257;28;20044;-84
2022/05/02 02:31:06;;;;;;;24.75;14.52;;;6.10;99.90;;;;;;5055619;28;20024;-83
2022/05/02 02:33:31;;;;;;;22.70;14.85;;;6.10;99.90;;;;;;5055559;28;20084;-85
2022/05/02 02:35:59;;;;;;;23.65;15.05;;;6.20;99.90;;;;;;5037195;28;20021;-85
2022/05/02 02:38:25;;;;;;;23.30;14.88;;;6.20;99.90;;;;;;5055366;28;20028;-84
2022/05/02 02:40:51;;;;;;;21.73;15.15;;;6.20;99.90;;;;;;5037260;28;20029;-83
2022/05/02 02:43:17;;;;;;;22.33;13.88;;;6.20;99.90;;;;;;5038062;28;20120;-85
2022/05/02 02:45:42;;;;;;;19.90;13.57;;;6.20;99.90;;;;;;5037743;28;20022;-85
2022/05/02 02:48:08;;;;;;;21.70;14.07;;;6.10;99.90;;;;;;5038328;28;20196;-84
2022/05/02 02:50:34;;;;;;;23.85;15.85;;;6.10;99.90;;;;;;5038562;28;20441;-87
2022/05/02 02:53:00;;;;;;;23.70;14.82;;;6.10;99.90;;;;;;5055638;28;20032;-84
2022/05/02 02:55:26;;;;;;;21.13;14.00;;;6.10;99.90;;;;;;5056307;28;20421;-83
2022/05/02 02:57:51;;;;;;;23.55;15.13;;;6.20;99.90;;;;;;5056524;28;20033;-85
2022/05/02 03:00:17;;;;;;;19.77;13.60;;;6.20;99.90;;;;;;5038982;28;20096;-86
2022/05/02 03:02:43;;;;;;;19.90;13.68;;;6.20;99.90;;;;;;5057543;28;20430;-84
2022/05/02 03:07:54;;;;;;;27.30;14.32;;;6.00;99.90;;;;;;5055017;28;20028;-83
2022/05/02 03:10:20;;;;;;;23.10;15.50;;;6.10;99.90;;;;;;5048875;28;20024;-83
2022/05/02 03:12:45;;;;;;;21.83;14.35;;;6.00;99.90;;;;;;5075522;28;20029;-83
2022/05/02 03:15:11;;;;;;;22.40;14.35;;;6.10;99.90;;;;;;5057367;28;20086;-84
2022/05/02 03:17:37;;;;;;;20.42;14.57;;;6.10;99.90;;;;;;5076376;28;20024;-82
2022/05/02 03:20:04;;;;;;;22.30;14.68;;;6.00;99.90;;;;;;5077667;28;20349;-86
2022/05/02 03:22:30;;;;;;;25.60;15.55;;;6.10;99.90;;;;;;5077328;28;20040;-85
2022/05/02 03:24:55;;;;;;;23.73;14.68;;;6.10;99.90;;;;;;5077618;28;20465;-84
2022/05/02 03:27:21;;;;;;;22.73;14.98;;;6.10;99.90;;;;;;5059583;28;20072;-83
2022/05/02 03:29:47;;;;;;;21.00;14.00;;;6.10;99.90;;;;;;5058121;28;20136;-84
2022/05/02 03:32:12;;;;;;;22.60;14.07;;;6.10;99.90;;;;;;5078639;28;20025;-85
2022/05/02 03:34:38;;;;;;;21.25;13.98;;;6.00;99.90;;;;;;5061416;28;20063;-85
2022/05/02 03:37:04;;;;;;;23.50;14.45;;;5.90;99.90;;;;;;5062677;28;20031;-84
2022/05/02 03:39:30;;;;;;;32.53;16.95;;;5.90;99.90;;;;;;5089769;28;20020;-84
2022/05/02 03:41:55;;;;;;;32.65;16.30;;;5.90;99.90;;;;;;5090524;28;20051;-82
2022/05/02 03:44:21;;;;;;;29.70;15.63;;;5.90;99.90;;;;;;5065988;28;20028;-82
2022/05/02 03:46:46;;;;;;;19.83;14.48;;;5.80;99.90;;;;;;5075049;28;20074;-83
2022/05/02 03:49:12;;;;;;;22.90;14.15;;;5.80;99.90;;;;;;5074830;28;20079;-82
2022/05/02 03:51:38;;;;;;;23.33;15.50;;;5.70;99.90;;;;;;5056440;28;20044;-84
2022/05/02 03:54:04;;;;;;;22.58;14.65;;;5.60;99.90;;;;;;5074256;28;20337;-82
2022/05/02 03:56:29;;;;;;;26.23;15.73;;;5.60;99.90;;;;;;5075334;28;20024;-84
2022/05/02 03:58:55;;;;;;;26.25;14.32;;;5.60;99.90;;;;;;5075226;28;20077;-82
2022/05/02 04:01:21;;;;;;;24.30;14.02;;;5.40;99.90;;;;;;5057025;28;20028;-83
2022/05/02 04:03:46;;;;;;;24.92;14.63;;;5.40;99.90;;;;;;5075519;28;20032;-82
2022/05/02 04:06:13;;;;;;;26.77;15.43;;;5.30;99.90;;;;;;5060998;28;20468;-81
2022/05/02 04:08:39;;;;;;;26.50;16.65;;;5.30;99.90;;;;;;5079036;28;20093;-84
2022/05/02 04:11:04;;;;;;;34.45;22.00;;;5.30;99.90;;;;;;5044516;28;20029;-81
2022/05/02 04:13:30;;;;;;;32.13;22.10;;;5.40;99.90;;;;;;5059380;28;20068;-84
2022/05/02 04:15:55;;;;;;;32.42;18.33;;;5.50;99.90;;;;;;5042524;28;20120;-85
2022/05/02 04:18:21;;;;;;;23.90;15.10;;;5.50;99.90;;;;;;5042414;28;20607;-85
2022/05/02 04:20:47;;;;;;;24.38;14.80;;;5.60;99.90;;;;;;5061557;28;20083;-85
2022/05/02 04:23:15;;;;;;;23.10;14.45;;;5.60;99.90;;;;;;5048513;28;20021;-83
2022/05/02 04:25:41;;;;;;;23.63;15.40;;;5.70;99.90;;;;;;5061548;28;20036;-84
2022/05/02 04:28:08;;;;;;;28.17;16.83;;;5.70;99.90;;;;;;5059020;28;20017;-83
2022/05/02 04:30:34;;;;;;;23.40;15.43;;;5.80;99.90;;;;;;5058871;28;20365;-84
2022/05/02 04:33:01;;;;;;;22.02;14.05;;;5.80;99.90;;;;;;5058762;28;20132;-84
2022/05/02 04:35:27;;;;;;;28.73;15.93;;;5.90;99.90;;;;;;5040782;28;20033;-84
2022/05/02 04:37:54;;;;;;;23.50;14.38;;;5.90;99.90;;;;;;5059066;28;20035;-83
2022/05/02 04:40:19;;;;;;;26.17;16.25;;;6.00;99.90;;;;;;5041242;28;20056;-83
2022/05/02 04:42:46;;;;;;;20.05;13.70;;;6.10;99.90;;;;;;5058489;28;20492;-84
2022/05/02 04:45:12;;;;;;;21.77;14.38;;;6.20;99.90;;;;;;5040131;28;20028;-83
2022/05/02 04:47:37;;;;;;;20.75;14.45;;;6.20;99.90;;;;;;5058563;28;20397;-83
2022/05/02 04:50:04;;;;;;;32.20;17.58;;;6.30;99.90;;;;;;5040167;28;20028;-82
2022/05/02 04:52:29;;;;;;;26.70;16.75;;;6.40;99.90;;;;;;5058519;28;20025;-83
2022/05/02 04:54:55;;;;;;;35.45;14.98;;;6.50;99.90;;;;;;5058928;28;20077;-81
2022/05/02 04:57:21;;;;;;;38.70;15.68;;;6.50;99.90;;;;;;5058482;28;20519;-83
2022/05/02 04:59:46;;;;;;;30.05;15.10;;;6.60;99.90;;;;;;5040885;28;20025;-85
2022/05/02 05:02:12;;;;;;;25.02;13.95;;;6.60;99.90;;;;;;5042508;28;20040;-83
2022/05/02 05:04:38;;;;;;;25.40;14.02;;;6.70;99.90;;;;;;5050996;28;20033;-83
2022/05/02 05:07:04;;;;;;;21.95;14.40;;;6.70;99.90;;;;;;5051292;28;20416;-82
2022/05/02 05:09:30;;;;;;;22.55;14.50;;;6.80;99.90;;;;;;5056241;28;20103;-84
2022/05/02 05:12:38;;;;;;;23.27;13.75;;;6.90;99.90;;;;;;5090538;28;20126;-83
2022/05/02 05:18:22;;;;;;;20.77;13.35;;;7.00;99.90;;;;;;5087865;28;20665;-84
2022/05/02 05:21:08;;;;;;;19.73;14.30;;;7.20;99.90;;;;;;5060991;28;20024;-82
2022/05/02 05:24:09;;;;;;;21.60;14.40;;;7.40;99.90;;;;;;5078026;28;20028;-84
2022/05/02 05:27:08;;;;;;;25.05;14.70;;;7.50;99.90;;;;;;5077231;28;20032;-85
2022/05/02 05:29:36;;;;;;;25.08;14.10;;;7.60;99.90;;;;;;5044644;28;20044;-84
2022/05/02 05:32:21;;;;;;;24.88;14.32;;;7.70;99.90;;;;;;5078316;28;20024;-85
2022/05/02 05:35:06;;;;;;;19.13;13.77;;;7.80;99.90;;;;;;5059582;28;20052;-83
2022/05/02 05:37:32;;;;;;;22.02;14.10;;;8.00;99.90;;;;;;5060329;28;20028;-85
2022/05/02 05:40:17;;;;;;;24.00;17.45;;;8.10;99.90;;;;;;5079197;28;20020;-81
2022/05/02 05:42:51;;;;;;;26.48;16.73;;;8.30;99.90;;;;;;5079126;28;20025;-85
2022/05/02 05:45:56;;;;;;;24.55;17.08;;;8.40;99.90;;;;;;5060868;28;20017;-84
2022/05/02 05:48:36;;;;;;;24.55;16.13;;;8.50;99.90;;;;;;5026607;28;20032;-83
2022/05/02 05:51:11;;;;;;;39.53;18.48;;;8.60;99.90;;;;;;5063078;28;20028;-85
2022/05/02 05:53:54;;;;;;;38.10;19.85;;;8.80;99.90;;;;;;5063079;28;20028;-83
2022/05/02 05:56:39;;;;;;;23.88;15.45;;;8.90;99.90;;;;;;5080650;28;20059;-84
2022/05/02 05:59:17;;;;;;;21.75;14.25;;;9.00;99.90;;;;;;5081623;28;20142;-84
2022/05/02 06:02:00;;;;;;;18.42;14.15;;;9.10;99.90;;;;;;5080830;28;20024;-85
2022/05/02 06:04:30;;;;;;;20.63;14.07;;;9.20;99.90;;;;;;5061416;28;20032;-83
2022/05/02 06:06:58;;;;;;;20.70;12.50;;;9.30;99.90;;;;;;5080989;28;20468;-84
2022/05/02 06:09:29;;;;;;;21.55;13.43;;;9.30;99.90;;;;;;5057997;28;20039;-84
2022/05/02 06:11:57;;;;;;;20.65;13.55;;;9.40;99.90;;;;;;5043015;28;20638;-85
2022/05/02 06:14:30;;;;;;;22.40;14.85;;;9.50;99.90;;;;;;5042271;28;20055;-82
2022/05/02 06:19:44;;;;;;;21.23;15.20;;;9.60;99.90;;;;;;5060090;28;20095;-83
2022/05/02 06:22:11;;;;;;;20.80;14.88;;;9.70;99.90;;;;;;5060348;28;20139;-84
2022/05/02 06:24:39;;;;;;;20.30;14.43;;;9.80;99.90;;;;;;5042335;28;20024;-85
2022/05/02 06:27:06;;;;;;;21.63;14.85;;;9.90;99.90;;;;;;5040883;28;20052;-86
2022/05/02 06:29:35;;;;;;;19.80;14.05;;;10.00;99.90;;;;;;5041803;28;20420;-84
2022/05/02 06:32:08;;;;;;;20.15;13.98;;;10.10;99.90;;;;;;5042155;28;20021;-82
2022/05/02 06:34:34;;;;;;;19.35;14.23;;;10.20;99.90;;;;;;5061572;28;20085;-84
2022/05/02 06:37:13;;;;;;;16.90;14.02;;;10.30;99.90;;;;;;5051601;28;20025;-86
2022/05/02 06:39:47;;;;;;;18.67;13.90;;;10.60;99.90;;;;;;5062073;28;20492;-82
2022/05/02 06:42:44;;;;;;;19.45;13.18;;;10.80;99.90;;;;;;5059491;28;20047;-85
2022/05/02 06:45:43;;;;;;;19.85;13.30;;;11.00;99.90;;;;;;5041493;28;20031;-85
2022/05/02 06:48:34;;;;;;;17.15;11.13;;;11.10;99.90;;;;;;5041293;28;20033;-84
2022/05/02 06:51:06;;;;;;;19.60;12.80;;;11.20;99.90;;;;;;5059899;28;20021;-84
2022/05/02 06:53:50;;;;;;;23.55;12.70;;;11.40;99.90;;;;;;5059461;28;20028;-84
2022/05/02 06:56:50;;;;;;;17.38;11.20;;;11.60;99.90;;;;;;5041893;28;20132;-83
2022/05/02 07:00:01;;;;;;;22.30;11.60;;;11.70;99.90;;;;;;5030541;28;20041;-85
2022/05/02 07:02:32;;;;;;;16.70;11.30;;;12.10;99.90;;;;;;5041030;28;20102;-82
2022/05/02 07:05:30;;;;;;;24.02;11.35;;;12.40;99.90;;;;;;5058718;28;20511;-85
2022/05/02 07:08:05;;;;;;;17.80;10.18;;;12.80;99.90;;;;;;5037098;28;20033;-82
2022/05/02 07:10:38;;;;;;;19.42;9.85;;;13.20;99.90;;;;;;5071852;28;20047;-85
2022/05/02 07:13:32;;;;;;;16.98;10.10;;;13.50;99.90;;;;;;5078109;28;20032;-84
2022/05/02 07:16:17;;;;;;;21.27;10.80;;;13.60;99.90;;;;;;5077390;28;20035;-83
2022/05/02 07:18:51;;;;;;;18.67;11.00;;;13.80;99.90;;;;;;5076159;28;20579;-84
2022/05/02 07:21:22;;;;;;;18.65;9.63;;;14.10;99.90;;;;;;5078029;28;20016;-86
2022/05/02 07:24:20;;;;;;;16.98;10.68;;;14.10;99.90;;;;;;5077960;28;20025;-84
2022/05/02 07:26:53;;;;;;;13.85;10.32;;;14.20;99.90;;;;;;5060310;28;20020;-83
2022/05/02 07:29:21;;;;;;;14.02;9.50;;;14.50;99.90;;;;;;5077526;28;20024;-85
2022/05/02 07:31:47;;;;;;;14.70;9.57;;;15.00;99.90;;;;;;5058701;28;20441;-82
2022/05/02 07:34:15;;;;;;;17.75;10.48;;;15.60;99.90;;;;;;5060285;28;20028;-85
2022/05/02 07:36:43;;;;;;;12.23;8.50;;;16.00;96.40;;;;;;5078473;28;20020;-83
2022/05/02 07:39:15;;;;;;;13.10;9.45;;;16.50;94.50;;;;;;5078413;28;20024;-83
2022/05/02 07:41:42;;;;;;;10.20;7.75;;;16.60;91.70;;;;;;5063462;28;20069;-83
2022/05/02 07:44:12;;;;;;;12.65;7.47;;;16.60;91.40;;;;;;5081281;28;20021;-80
2022/05/02 07:46:43;;;;;;;11.32;8.18;;;17.00;90.80;;;;;;5063128;28;20046;-84
2022/05/02 07:49:13;;;;;;;11.95;8.10;;;17.30;84.90;;;;;;5081646;28;20159;-84
2022/05/02 07:51:42;;;;;;;11.70;8.32;;;17.40;85.60;;;;;;5081112;28;20037;-84
2022/05/02 07:54:14;;;;;;;11.48;8.13;;;17.30;85.90;;;;;;5082363;28;20044;-84
2022/05/02 07:56:41;;;;;;;12.35;8.23;;;17.20;83.60;;;;;;5081395;28;20017;-86
2022/05/02 07:59:08;;;;;;;12.35;8.48;;;17.30;86.10;;;;;;5062495;28;20025;-81
2022/05/02 08:01:34;;;;;;;11.85;8.13;;;17.30;82.50;;;;;;5061919;28;20042;-83
2022/05/02 08:04:00;;;;;;;12.45;8.55;;;17.30;82.30;;;;;;5062671;28;20127;-83
2022/05/02 08:06:52;;;;;;;11.38;8.35;;;17.60;83.00;;;;;;5063106;28;20035;-83
2022/05/02 08:09:24;;;;;;;18.23;8.55;;;17.60;81.20;;;;;;5059857;28;20484;-85
2022/05/02 08:12:17;;;;;;;12.98;7.63;;;17.80;79.40;;;;;;5061294;28;20163;-82
2022/05/02 08:14:50;;;;;;;10.55;7.57;;;17.90;77.70;;;;;;5062190;28;20077;-83
2022/05/02 08:17:40;;;;;;;13.38;7.22;;;18.00;77.30;;;;;;5063247;28;20040;-84
2022/05/02 08:20:33;;;;;;;11.10;7.03;;;18.00;77.70;;;;;;5044414;28;20093;-85
2022/05/02 08:29:05;;;;;;;9.13;6.75;;;18.60;74.70;;;;;;5064378;28;20024;-83
2022/05/02 08:31:43;;;;;;;10.68;7.80;;;18.80;74.00;;;;;;5065602;28;20025;-83
2022/05/02 08:34:35;;;;;;;14.95;7.50;;;19.10;73.50;;;;;;5066756;28;20025;-86
2022/05/02 08:37:40;;;;;;;13.65;7.90;;;19.20;71.90;;;;;;5048728;28;20025;-85
2022/05/02 08:40:12;;;;;;;13.05;8.25;;;19.10;72.80;;;;;;4973107;28;20210;-84
2022/05/02 08:43:15;;;;;;;12.57;7.65;;;19.20;70.90;;;;;;4989900;28;20078;-85
2022/05/02 08:45:50;;;;;;;13.05;7.40;;;19.00;70.90;;;;;;5045774;28;20104;-86
2022/05/02 08:48:41;;;;;;;9.02;7.20;;;18.90;73.20;;;;;;5063937;28;20021;-84
2022/05/02 08:51:22;;;;;;;12.77;7.68;;;19.20;71.20;;;;;;5066094;28;20028;-83
2022/05/02 08:53:53;;;;;;;12.25;7.68;;;19.30;70.20;;;;;;5045562;28;20457;-85
2022/05/02 08:56:43;;;;;;;11.70;7.60;;;19.40;68.40;;;;;;5042488;28;20033;-84
2022/05/02 08:59:20;;;;;;;10.43;7.15;;;19.50;68.60;;;;;;5060756;28;20029;-86
2022/05/02 09:02:04;;;;;;;8.18;6.47;;;19.70;69.60;;;;;;5043271;28;20025;-84
2022/05/02 09:04:50;;;;;;;8.13;6.28;;;19.80;68.90;;;;;;5044123;28;20029;-84
2022/05/02 09:07:34;;;;;;;13.30;7.72;;;20.00;68.40;;;;;;5042838;28;20021;-85
2022/05/02 09:10:17;;;;;;;10.93;7.00;;;20.10;65.80;;;;;;5069394;28;20025;-84
2022/05/02 09:13:04;;;;;;;13.07;6.60;;;20.20;66.50;;;;;;5082697;28;20055;-82
2022/05/02 09:15:35;;;;;;;11.13;7.05;;;20.20;66.20;;;;;;5063514;28;20020;-83
2022/05/02 09:18:22;;;;;;;9.95;6.18;;;20.30;66.90;;;;;;5066674;28;20025;-84
2022/05/02 09:20:56;;;;;;;9.80;7.30;;;20.60;66.80;;;;;;5063265;28;20031;-84
2022/05/02 09:23:34;;;;;;;11.68;6.90;;;20.30;65.70;;;;;;5061511;28;20116;-84
2022/05/02 09:26:06;;;;;;;11.82;6.30;;;20.30;65.60;;;;;;5060837;28;20069;-84
2022/05/02 09:28:53;;;;;;;8.63;7.53;;;20.30;65.90;;;;;;5061315;28;20024;-85
2022/05/02 09:31:35;;;;;;;12.90;6.75;;;20.50;65.00;;;;;;5060903;28;20488;-82
2022/05/02 09:34:45;;;;;;;12.48;6.45;;;20.40;64.20;;;;;;5061157;28;20059;-85
2022/05/02 09:37:40;;;;;;;11.23;5.95;;;20.50;65.00;;;;;;4997396;28;20781;-84
2022/05/02 09:40:17;;;;;;;9.68;6.43;;;20.80;64.00;;;;;;5059264;28;20423;-83
2022/05/02 09:43:16;;;;;;;7.13;6.25;;;21.10;64.10;;;;;;5078481;28;20024;-83
2022/05/02 09:52:25;;;;;;;10.15;6.60;;;21.40;61.90;;;;;;5079252;28;20043;-85
2022/05/02 09:58:04;;;;;;;11.33;6.50;;;21.30;61.90;;;;;;5078748;28;20036;-83
2022/05/02 10:01:07;;;;;;;9.18;6.32;;;21.30;63.00;;;;;;5060339;28;20485;-84
2022/05/02 10:03:39;;;;;;;8.75;5.40;;;21.40;62.80;;;;;;5058829;28;20100;-84
2022/05/02 10:06:09;;;;;;;10.02;6.00;;;21.50;61.10;;;;;;5060705;28;20032;-84
2022/05/02 10:08:45;;;;;;;8.63;5.93;;;21.40;61.40;;;;;;5060763;28;20084;-85
2022/05/02 10:11:38;;;;;;;10.57;5.63;;;21.60;60.70;;;;;;5042537;28;20214;-83
2022/05/02 10:14:19;;;;;;;6.68;5.53;;;21.90;60.60;;;;;;5040679;28;20049;-83
2022/05/02 10:16:50;;;;;;;10.30;6.18;;;21.80;59.90;;;;;;5040981;28;20116;-82
2022/05/02 10:19:38;;;;;;;11.60;6.88;;;21.80;59.30;;;;;;5040964;28;20035;-82
2022/05/02 10:22:17;;;;;;;12.45;6.85;;;21.50;60.70;;;;;;5058430;28;20021;-83
2022/05/02 10:24:59;;;;;;;11.25;6.60;;;21.50;59.80;;;;;;5040792;28;20082;-85
2022/05/02 10:28:03;;;;;;;7.82;5.55;;;21.70;60.60;;;;;;5040004;28;20017;-84
2022/05/02 10:30:49;;;;;;;8.57;5.25;;;21.70;60.10;;;;;;5041179;28;20040;-83
2022/05/02 10:33:21;;;;;;;10.13;6.82;;;21.90;60.40;;;;;;5041832;28;20092;-84
2022/05/02 10:35:51;;;;;;;7.05;5.07;;;22.00;58.10;;;;;;5040722;28;20033;-83
2022/05/02 10:38:28;;;;;;;9.43;6.20;;;21.90;59.60;;;;;;5057890;28;20033;-85
2022/05/02 10:41:11;;;;;;;8.15;5.65;;;21.90;60.50;;;;;;5041111;28;20028;-85
2022/05/02 10:43:41;;;;;;;12.55;7.13;;;22.10;58.70;;;;;;5058088;28;20024;-85
2022/05/02 10:46:12;;;;;;;10.55;6.95;;;22.00;59.90;;;;;;5040836;28;20588;-87
2022/05/02 10:48:49;;;;;;;9.35;6.72;;;22.00;59.10;;;;;;5060200;28;20045;-83
2022/05/02 10:51:24;;;;;;;8.40;6.20;;;21.90;59.20;;;;;;5041745;28;20456;-84
2022/05/02 10:54:01;;;;;;;10.20;6.30;;;21.90;59.80;;;;;;5042526;28;20114;-85
2022/05/02 10:56:41;;;;;;;13.02;7.15;;;22.00;59.80;;;;;;5042602;28;20029;-84
2022/05/02 10:59:13;;;;;;;9.48;7.10;;;21.90;59.70;;;;;;5059928;28;20021;-83
2022/05/02 11:02:00;;;;;;;14.05;5.95;;;21.90;59.40;;;;;;5059774;28;20055;-84
2022/05/02 11:04:48;;;;;;;9.35;6.57;;;22.10;60.50;;;;;;5042509;28;20028;-85
2022/05/02 11:07:30;;;;;;;12.63;6.78;;;21.90;59.00;;;;;;5058804;28;20037;-85
2022/05/02 11:09:55;;;;;;;8.43;6.78;;;21.70;61.00;;;;;;5065080;28;20091;-85
2022/05/02 11:12:31;;;;;;;8.60;6.30;;;21.90;59.70;;;;;;5040504;28;20022;-85
2022/05/02 11:15:06;;;;;;;7.82;6.15;;;21.90;60.40;;;;;;5039851;28;20029;-83
2022/05/02 11:17:43;;;;;;;11.13;6.38;;;22.00;59.20;;;;;;5039506;28;20484;-84
2022/05/02 11:23:18;;;;;;;7.90;6.13;;;22.20;60.80;;;;;;5057013;28;20024;-85
2022/05/02 11:26:00;;;;;;;10.07;7.18;;;22.70;59.60;;;;;;5056593;28;20074;-85
2022/05/02 11:28:52;;;;;;;10.55;6.95;;;22.60;58.80;;;;;;5039759;28;20025;-82
2022/05/02 11:31:27;;;;;;;10.18;6.90;;;22.50;58.40;;;;;;5027522;28;20054;-82
2022/05/02 11:34:23;;;;;;;9.05;6.00;;;22.00;60.00;;;;;;5039381;28;20104;-85
2022/05/02 11:36:58;;;;;;;10.23;6.65;;;22.40;60.10;;;;;;5038847;28;20103;-84
2022/05/02 11:39:57;;;;;;;9.45;6.20;;;22.60;59.20;;;;;;5039641;28;20029;-84
2022/05/02 11:42:28;;;;;;;10.32;6.53;;;22.80;59.10;;;;;;5032452;28;20028;-83
2022/05/02 11:45:03;;;;;;;10.55;7.47;;;22.70;59.10;;;;;;5039053;28;20025;-84
2022/05/02 11:47:59;;;;;;;8.80;5.70;;;22.60;57.90;;;;;;5038227;28;20028;-84
2022/05/02 11:50:26;;;;;;;12.27;8.07;;;22.50;59.50;;;;;;5038225;28;20029;-84
2022/05/02 11:52:54;;;;;;;11.00;6.43;;;22.20;59.20;;;;;;5056175;28;20060;-84
2022/05/02 11:55:33;;;;;;;11.02;7.25;;;22.00;59.70;;;;;;5055515;28;20025;-85
2022/05/02 11:58:13;;;;;;;13.18;6.75;;;22.30;60.10;;;;;;5056403;28;20052;-85
2022/05/02 12:00:42;;;;;;;10.48;6.95;;;22.40;60.50;;;;;;5038263;28;20083;-82
2022/05/02 12:03:22;;;;;;;10.70;6.93;;;22.40;58.80;;;;;;5056165;28;20028;-83
2022/05/02 12:05:55;;;;;;;9.48;6.40;;;22.60;57.90;;;;;;5038040;28;20047;-82
2022/05/02 12:08:44;;;;;;;12.73;6.82;;;22.70;58.00;;;;;;5038024;28;20090;-84
2022/05/02 12:11:15;;;;;;;9.50;6.95;;;22.90;57.20;;;;;;5055675;28;20021;-83
2022/05/02 12:13:47;;;;;;;10.00;6.43;;;23.10;56.80;;;;;;5058285;28;20392;-84
2022/05/02 12:16:18;;;;;;;7.20;5.85;;;23.20;56.10;;;;;;5075660;28;20021;-84
2022/05/02 12:18:54;;;;;;;8.45;6.63;;;23.30;56.90;;;;;;5076122;28;20036;-83
2022/05/02 12:21:31;;;;;;;8.60;5.95;;;23.30;55.30;;;;;;5075881;28;20017;-82
2022/05/02 12:23:58;;;;;;;11.48;7.20;;;23.60;56.20;;;;;;5057410;28;20028;-83
2022/05/02 12:26:25;;;;;;;9.18;6.32;;;23.60;54.90;;;;;;5060137;28;20086;-82
2022/05/02 12:28:56;;;;;;;7.93;6.53;;;23.40;57.20;;;;;;5062213;28;20044;-83
2022/05/02 12:31:32;;;;;;;9.13;6.10;;;23.40;56.30;;;;;;5061850;28;20096;-84
2022/05/02 12:34:10;;;;;;;8.93;6.47;;;23.70;56.00;;;;;;5062600;28;20074;-83
2022/05/02 12:36:45;;;;;;;8.23;6.07;;;23.70;55.10;;;;;;5061849;28;20025;-84
2022/05/02 12:39:17;;;;;;;9.68;6.53;;;23.90;53.60;;;;;;5061343;28;20550;-85
2022/05/02 12:41:50;;;;;;;10.10;6.80;;;23.90;54.60;;;;;;5061764;28;20025;-80
2022/05/02 12:44:17;;;;;;;9.25;6.43;;;23.30;54.50;;;;;;5078760;28;20524;-82
2022/05/02 12:46:48;;;;;;;12.18;8.00;;;22.70;56.60;;;;;;5060847;28;20063;-85
2022/05/02 12:49:40;;;;;;;11.55;7.75;;;22.30;57.50;;;;;;5079584;28;20020;-83
2022/05/02 12:52:07;;;;;;;9.55;6.38;;;22.20;59.10;;;;;;5060462;28;20055;-82
2022/05/02 12:54:33;;;;;;;11.93;7.28;;;22.60;57.70;;;;;;5061276;28;20619;-85
2022/05/02 13:02:44;;;;;;;8.43;6.00;;;23.20;55.80;;;;;;5077453;28;20541;-85
2022/05/02 13:05:12;;;;;;;9.88;5.03;;;23.50;55.00;;;;;;5078060;28;20035;-83
2022/05/02 13:07:56;;;;;;;8.10;5.93;;;23.60;55.60;;;;;;5059934;28;20024;-83
2022/05/02 13:10:27;;;;;;;8.30;5.18;;;23.60;53.50;;;;;;5066658;28;20033;-85
2022/05/02 13:13:04;;;;;;;7.28;5.30;;;23.90;55.90;;;;;;5040674;28;20036;-82
2022/05/02 13:15:46;;;;;;;9.70;5.57;;;24.10;54.50;;;;;;5059397;28;20443;-85
2022/05/02 13:18:19;;;;;;;7.32;5.40;;;24.30;52.10;;;;;;5060102;28;20036;-85
2022/05/02 13:21:10;;;;;;;8.05;5.25;;;24.20;53.20;;;;;;5061106;28;20029;-83
2022/05/02 13:23:39;;;;;;;7.88;5.68;;;24.50;54.00;;;;;;5054018;28;20021;-85
2022/05/02 13:26:22;;;;;;;11.02;7.28;;;24.50;53.10;;;;;;5046001;28;20021;-82
2022/05/02 13:29:06;;;;;;;8.88;6.47;;;24.60;53.30;;;;;;5058913;28;20092;-86
2022/05/02 13:31:43;;;;;;;10.10;6.30;;;24.50;52.30;;;;;;5042178;28;20627;-84
2022/05/02 13:34:31;;;;;;;9.45;6.07;;;23.80;53.40;;;;;;5059810;28;20426;-84
2022/05/02 13:37:19;;;;;;;11.35;7.05;;;23.00;55.50;;;;;;5041033;28;20021;-85
2022/05/02 13:40:09;;;;;;;12.02;8.20;;;22.40;56.40;;;;;;5042305;28;20035;-85
2022/05/02 13:42:38;;;;;;;11.55;7.75;;;21.90;57.50;;;;;;5042087;28;20031;-83
2022/05/02 13:45:14;;;;;;;11.35;8.30;;;21.70;58.20;;;;;;5061417;28;20461;-84
2022/05/02 13:47:49;;;;;;;8.82;7.72;;;21.80;57.60;;;;;;5049910;28;20035;-86